Time;durP1;ratioP1;P1;durP2;ratioP2;P2;SDS_P1;SDS_P2;PMS_P1;PMS_P2;Temp;Humidity;BMP_temperature;BMP_pressure;BME280_temperature;BME280_humidity;BME280_pressure;Samples;Min_cycle;Max_cycle;Signal;HPM_P1;HPM_P2
2021/04/05 00:04:39;;;;;;;;;;;;;;;;;;7421887;40;1181;-21
2021/04/05 00:10:00;;;;;;;;;;;;;;;;;;7421919;40;1877;-20
2021/04/05 00:15:20;;;;;;;;;;;;;;;;;;7439867;40;1133;-20
2021/04/05 00:20:52;;;;;;;;;;;;;;;;;;7442797;40;1297;-21
2021/04/05 00:26:13;;;;;;;;;;;;;;;;;;7442439;40;1928;-19
2021/04/05 00:31:33;;;;;;;;;;;;;;;;;;7442503;40;1153;-20
2021/04/05 00:36:54;;;;;;;;;;;;;;;;;;7434437;40;1162;-20
2021/04/05 00:42:16;;;;;;;;;;;;;;;;;;7442428;40;1022;-21
2021/04/05 00:47:38;;;;;;;;;;;;;;;;;;7442283;39;1936;-21
2021/04/05 00:52:59;;;;;;;;;;;;;;;;;;7442270;40;1029;-22
2021/04/05 00:58:20;;;;;;;;;;;;;;;;;;7442105;40;1025;-21
2021/04/05 01:03:42;;;;;;;;;;;;;;;;;;7441859;40;1287;-21
2021/04/05 01:09:04;;;;;;;;;;;;;;;;;;7441668;40;1900;-20
2021/04/05 01:14:24;;;;;;;;;;;;;;;;;;7441768;40;1156;-22
2021/04/05 01:19:44;;;;;;;;;;;;;;;;;;7442074;40;1018;-21
2021/04/05 01:25:13;;;;;;;;;;;;;;;;;;7441814;40;1037;-20
2021/04/05 01:30:37;;;;;;;;;;;;;;;;;;7441741;40;1927;-21
2021/04/05 01:35:59;;;;;;;;;;;;;;;;;;7441644;40;1003;-20
2021/04/05 01:41:23;;;;;;;;;;;;;;;;;;7441713;40;1159;-21
2021/04/05 01:46:44;;;;;;;;;;;;;;;;;;7441182;40;1932;-20
2021/04/05 01:52:10;;;;;;;;;;;;;;;;;;7441576;40;1023;-22
2021/04/05 01:57:31;;;;;;;;;;;;;;;;;;7441074;39;1086;-21
2021/04/05 02:02:51;;;;;;;;;;;;;;;;;;7441498;40;1133;-21
2021/04/05 02:08:12;;;;;;;;;;;;;;;;;;7440944;40;1885;-21
2021/04/05 02:13:33;;;;;;;;;;;;;;;;;;7441169;40;1253;-20
2021/04/05 02:18:54;;;;;;;;;;;;;;;;;;7440916;40;1254;-20
2021/04/05 02:24:14;;;;;;;;;;;;;;;;;;7440933;40;1044;-22
2021/04/05 02:29:35;;;;;;;;;;;;;;;;;;7441030;40;1931;-21
2021/04/05 02:34:56;;;;;;;;;;;;;;;;;;7440655;40;962;-20
2021/04/05 02:40:16;;;;;;;;;;;;;;;;;;7440735;40;1194;-21
2021/04/05 02:45:37;;;;;;;;;;;;;;;;;;7440573;40;1063;-20
2021/04/05 02:50:58;;;;;;;;;;;;;;;;;;7440483;40;1874;-21
2021/04/05 02:56:18;;;;;;;;;;;;;;;;;;7440575;40;1387;-21
2021/04/05 03:01:39;;;;;;;;;;;;;;;;;;7440489;40;1126;-21
2021/04/05 03:07:00;;;;;;;;;;;;;;;;;;7440161;39;2013;-21
2021/04/05 03:12:20;;;;;;;;;;;;;;;;;;7443453;40;1210;-21
2021/04/05 03:17:41;;;;;;;;;;;;;;;;;;7443271;40;1112;-21
2021/04/05 03:23:02;;;;;;;;;;;;;;;;;;7443276;40;985;-21
2021/04/05 03:28:22;;;;;;;;;;;;;;;;;;7443189;40;1877;-19
2021/04/05 03:33:43;;;;;;;;;;;;;;;;;;7443211;40;1134;-21
2021/04/05 03:39:04;;;;;;;;;;;;;;;;;;7443122;40;992;-21
2021/04/05 03:44:30;;;;;;;;;;;;;;;;;;7443093;40;1038;-21
2021/04/05 03:49:54;;;;;;;;;;;;;;;;;;7442813;40;1946;-20
2021/04/05 03:55:15;;;;;;;;;;;;;;;;;;7443061;40;979;-20
2021/04/05 04:00:37;;;;;;;;;;;;;;;;;;7426969;40;1063;-21
2021/04/05 04:06:01;;;;;;;;;;;;;;;;;;7442911;40;1301;-21
2021/04/05 04:11:26;;;;;;;;;;;;;;;;;;7434385;40;1255;-22
2021/04/05 04:16:47;;;;;;;;;;;;;;;;;;7442391;40;1360;-20
2021/04/05 04:22:07;;;;;;;;;;;;;;;;;;7442231;39;1080;-20
2021/04/05 04:27:28;;;;;;;;;;;;;;;;;;7442493;40;1960;-20
2021/04/05 04:32:52;;;;;;;;;;;;;;;;;;7448833;39;982;-20
2021/04/05 04:38:12;;;;;;;;;;;;;;;;;;7442505;40;982;-22
2021/04/05 04:43:33;;;;;;;;;;;;;;;;;;7442385;40;1097;-21
2021/04/05 04:48:57;;;;;;;;;;;;;;;;;;7442340;40;1939;-20
2021/04/05 04:54:18;;;;;;;;;;;;;;;;;;7442301;40;1090;-22
2021/04/05 04:59:39;;;;;;;;;;;;;;;;;;7442078;40;1169;-21
2021/04/05 05:05:02;;;;;;;;;;;;;;;;;;7426135;40;1272;-23
2021/04/05 05:10:22;;;;;;;;;;;;;;;;;;7442006;40;1927;-20
2021/04/05 05:15:44;;;;;;;;;;;;;;;;;;7441968;40;1243;-21
2021/04/05 05:21:11;;;;;;;;;;;;;;;;;;7441878;40;1417;-20
2021/04/05 05:26:32;;;;;;;;;;;;;;;;;;7441707;40;1860;-21
2021/04/05 05:31:53;;;;;;;;;;;;;;;;;;7440776;40;1100;-21
2021/04/05 05:37:14;;;;;;;;;;;;;;;;;;7441697;40;1052;-21
2021/04/05 05:42:52;;;;;;;;;;;;;;;;;;7441441;40;1191;-20
2021/04/05 05:48:12;;;;;;;;;;;;;;;;;;7441640;40;1925;-20
2021/04/05 05:53:47;;;;;;;;;;;;;;;;;;7441398;40;1032;-19
2021/04/05 05:59:14;;;;;;;;;;;;;;;;;;7441260;40;1399;-21
2021/04/05 06:04:54;;;;;;;;;;;;;;;;;;7441397;40;1169;-21
2021/04/05 06:10:33;;;;;;;;;;;;;;;;;;7441041;40;1951;-20
2021/04/05 06:16:12;;;;;;;;;;;;;;;;;;7443546;39;1116;-21
2021/04/05 06:21:51;;;;;;;;;;;;;;;;;;7419225;40;1120;-20
2021/04/05 06:27:20;;;;;;;;;;;;;;;;;;7420152;40;1873;-22
2021/04/05 06:32:58;;;;;;;;;;;;;;;;;;7419256;40;1099;-19
2021/04/05 06:38:24;;;;;;;;;;;;;;;;;;7416840;40;1156;-20
2021/04/05 06:43:51;;;;;;;;;;;;;;;;;;7418215;40;1037;-22
2021/04/05 06:49:12;;;;;;;;;;;;;;;;;;7419804;40;1878;-21
2021/04/05 06:54:57;;;;;;;;;;;;;;;;;;7197830;39;10000054;-22
2021/04/05 07:00:24;;;;;;;;;;;;;;;;;;7439651;39;1082;-21
2021/04/05 07:05:57;;;;;;;;;;;;;;;;;;7456899;39;1202;-20
2021/04/05 07:11:19;;;;;;;;;;;;;;;;;;7461060;39;1966;-20
2021/04/05 07:16:39;;;;;;;;;;;;;;;;;;7460329;39;1541;-20
2021/04/05 07:22:14;;;;;;;;;;;;;;;;;;7445552;39;1040;-19
2021/04/05 07:27:34;;;;;;;;;;;;;;;;;;7402586;40;5278;-21
2021/04/05 07:33:15;;;;;;;;;;;;;;;;;;7381622;40;1261;-21
2021/04/05 07:38:39;;;;;;;;;;;;;;;;;;7376250;40;1540;-20
2021/04/05 07:44:03;;;;;;;;;;;;;;;;;;7378088;40;1052;-21
2021/04/05 07:49:32;;;;;;;;;;;;;;;;;;7377822;40;1932;-21
2021/04/05 07:54:53;;;;;;;;;;;;;;;;;;7376899;40;2710;-21
2021/04/05 08:00:33;;;;;;;;;;;;;;;;;;7379456;40;1216;-21
2021/04/05 08:05:54;;;;;;;;;;;;;;;;;;7375523;40;1379;-22
2021/04/05 08:11:20;;;;;;;;;;;;;;;;;;7384389;40;1888;-20
2021/04/05 08:16:59;;;;;;;;;;;;;;;;;;7378083;40;1160;-22
2021/04/05 08:22:33;;;;;;;;;;;;;;;;;;7377692;40;1010;-20
2021/04/05 08:27:57;;;;;;;;;;;;;;;;;;7377530;40;1876;-21
2021/04/05 08:33:26;;;;;;;;;;;;;;;;;;7377334;40;996;-21
2021/04/05 08:38:52;;;;;;;;;;;;;;;;;;7386133;40;2168;-21
2021/04/05 08:44:16;;;;;;;;;;;;;;;;;;7395836;40;1087;-20
2021/04/05 08:49:37;;;;;;;;;;;;;;;;;;7397781;40;1932;-20
2021/04/05 08:55:01;;;;;;;;;;;;;;;;;;7395740;40;1128;-21
2021/04/05 09:00:23;;;;;;;;;;;;;;;;;;7359169;40;1651;-23
2021/04/05 09:05:44;;;;;;;;;;;;;;;;;;7356193;40;1313;-20
2021/04/05 09:11:05;;;;;;;;;;;;;;;;;;7355858;40;1878;-20
2021/04/05 09:16:47;;;;;;;;;;;;;;;;;;7356217;40;1231;-22
2021/04/05 09:22:07;;;;;;;;;;;;;;;;;;7373852;40;1073;-22
2021/04/05 09:27:46;;;;;;;;;;;;;;;;;;7376562;40;1928;-21
2021/04/05 09:33:21;;;;;;;;;;;;;;;;;;7376751;40;1094;-21
2021/04/05 09:38:44;;;;;;;;;;;;;;;;;;7376668;40;2856;-21
2021/04/05 09:44:19;;;;;;;;;;;;;;;;;;7376516;40;1067;-22
2021/04/05 09:50:06;;;;;;;;;;;;;;;;;;7376303;40;1882;-21
2021/04/05 09:55:29;;;;;;;;;;;;;;;;;;7376302;40;1026;-21
2021/04/05 10:01:08;;;;;;;;;;;;;;;;;;7376210;40;1110;-23
2021/04/05 10:06:31;;;;;;;;;;;;;;;;;;7375689;40;1245;-21
2021/04/05 10:11:52;;;;;;;;;;;;;;;;;;7375957;40;1882;-20
2021/04/05 10:17:19;;;;;;;;;;;;;;;;;;7380056;40;1102;-20
2021/04/05 10:22:43;;;;;;;;;;;;;;;;;;7372642;40;1132;-22
2021/04/05 10:28:05;;;;;;;;;;;;;;;;;;7375600;40;2043;-20
2021/04/05 10:33:29;;;;;;;;;;;;;;;;;;7375281;40;993;-21
2021/04/05 10:38:50;;;;;;;;;;;;;;;;;;7375265;40;2473;-23
2021/04/05 10:44:13;;;;;;;;;;;;;;;;;;7374840;40;1950;-20
2021/04/05 10:49:34;;;;;;;;;;;;;;;;;;7382203;40;1961;-20
2021/04/05 10:54:55;;;;;;;;;;;;;;;;;;7389406;40;1045;-22
2021/04/05 11:00:16;;;;;;;;;;;;;;;;;;7395714;40;1135;-21
2021/04/05 11:05:37;;;;;;;;;;;;;;;;;;7395537;40;1139;-20
2021/04/05 11:11:03;;;;;;;;;;;;;;;;;;7394509;40;1924;-20
2021/04/05 11:16:25;;;;;;;;;;;;;;;;;;7396097;40;1002;-21
2021/04/05 11:21:51;;;;;;;;;;;;;;;;;;7382614;40;1012;-21
2021/04/05 11:27:12;;;;;;;;;;;;;;;;;;7374490;40;1945;-20
2021/04/05 11:32:33;;;;;;;;;;;;;;;;;;7377499;40;1162;-20
2021/04/05 11:37:53;;;;;;;;;;;;;;;;;;7371119;40;2345;-20
2021/04/05 11:43:18;;;;;;;;;;;;;;;;;;7357408;40;1109;-20
2021/04/05 11:48:39;;;;;;;;;;;;;;;;;;7357985;40;1908;-21
2021/04/05 11:54:00;;;;;;;;;;;;;;;;;;7377766;40;1865;-22
2021/04/05 11:59:26;;;;;;;;;;;;;;;;;;7377775;40;1107;-22
2021/04/05 12:05:04;;;;;;;;;;;;;;;;;;7376146;40;1157;-20
2021/04/05 12:10:41;;;;;;;;;;;;;;;;;;7376984;40;1878;-21
2021/04/05 12:16:02;;;;;;;;;;;;;;;;;;7377549;40;1015;-22
2021/04/05 12:21:33;;;;;;;;;;;;;;;;;;7376629;40;1048;-21
2021/04/05 12:27:12;;;;;;;;;;;;;;;;;;7381541;40;1096;-22
2021/04/05 12:32:33;;;;;;;;;;;;;;;;;;7380084;40;1098;-21
2021/04/05 12:37:57;;;;;;;;;;;;;;;;;;7376136;40;2636;-21
2021/04/05 12:43:22;;;;;;;;;;;;;;;;;;7377019;40;897;-20
2021/04/05 12:48:43;;;;;;;;;;;;;;;;;;7377001;40;1928;-21
2021/04/05 12:54:08;;;;;;;;;;;;;;;;;;7376958;40;1106;-20
2021/04/05 12:59:29;;;;;;;;;;;;;;;;;;7379038;40;1084;-20
2021/04/05 13:04:56;;;;;;;;;;;;;;;;;;7376927;40;1183;-22
2021/04/05 13:10:21;;;;;;;;;;;;;;;;;;7376426;40;1924;-21
2021/04/05 13:15:43;;;;;;;;;;;;;;;;;;7376950;40;1092;-22
2021/04/05 13:21:11;;;;;;;;;;;;;;;;;;7376685;40;994;-21
2021/04/05 13:26:38;;;;;;;;;;;;;;;;;;7376507;40;1055;-22
2021/04/05 13:32:03;;;;;;;;;;;;;;;;;;7376473;40;1886;-20
2021/04/05 13:37:24;;;;;;;;;;;;;;;;;;7376340;40;2610;-21
2021/04/05 13:42:46;;;;;;;;;;;;;;;;;;7376385;40;1809;-22
2021/04/05 13:48:10;;;;;;;;;;;;;;;;;;7376203;40;1916;-21
2021/04/05 13:53:41;;;;;;;;;;;;;;;;;;7376120;40;991;-22
2021/04/05 13:59:03;;;;;;;;;;;;;;;;;;7376125;40;1052;-21
2021/04/05 14:04:24;;;;;;;;;;;;;;;;;;7376104;40;1339;-22
2021/04/05 14:09:45;;;;;;;;;;;;;;;;;;7375480;40;1875;-19
2021/04/05 14:15:06;;;;;;;;;;;;;;;;;;7377220;40;1045;-22
2021/04/05 14:20:31;;;;;;;;;;;;;;;;;;7384664;40;1215;-21
2021/04/05 14:25:54;;;;;;;;;;;;;;;;;;7379007;40;1089;-20
2021/04/05 14:31:21;;;;;;;;;;;;;;;;;;7373938;40;1941;-20
2021/04/05 14:36:43;;;;;;;;;;;;;;;;;;7375242;40;2637;-20
2021/04/05 14:42:13;;;;;;;;;;;;;;;;;;7375665;40;1041;-20
2021/04/05 14:47:35;;;;;;;;;;;;;;;;;;7375140;40;1886;-22
2021/04/05 14:52:57;;;;;;;;;;;;;;;;;;7375438;40;1157;-20
2021/04/05 14:58:18;;;;;;;;;;;;;;;;;;7375276;40;991;-22
2021/04/05 15:03:39;;;;;;;;;;;;;;;;;;7376382;40;1276;-19
2021/04/05 15:09:00;;;;;;;;;;;;;;;;;;7378452;40;1874;-20
2021/04/05 15:14:25;;;;;;;;;;;;;;;;;;7378402;40;992;-20
2021/04/05 15:19:50;;;;;;;;;;;;;;;;;;7375061;40;1243;-22
2021/04/05 15:25:12;;;;;;;;;;;;;;;;;;7380785;40;1064;-20
2021/04/05 15:30:39;;;;;;;;;;;;;;;;;;7379780;40;1968;-20
2021/04/05 15:35:59;;;;;;;;;;;;;;;;;;7388523;40;1096;-21
2021/04/05 15:41:22;;;;;;;;;;;;;;;;;;7387468;40;1539;-21
2021/04/05 15:46:51;;;;;;;;;;;;;;;;;;7384125;40;1555;-21
2021/04/05 15:52:11;;;;;;;;;;;;;;;;;;7381068;40;1936;-20
2021/04/05 15:57:35;;;;;;;;;;;;;;;;;;7377439;40;1021;-22
2021/04/05 16:03:05;;;;;;;;;;;;;;;;;;7381856;40;1201;-21
2021/04/05 16:08:37;;;;;;;;;;;;;;;;;;7387195;40;1884;-21
2021/04/05 16:14:01;;;;;;;;;;;;;;;;;;7387656;40;1039;-20
2021/04/05 16:19:26;;;;;;;;;;;;;;;;;;7385902;40;1088;-22
2021/04/05 16:24:51;;;;;;;;;;;;;;;;;;7386331;40;1093;-22
2021/04/05 16:30:12;;;;;;;;;;;;;;;;;;7385070;40;1935;-21
2021/04/05 16:35:39;;;;;;;;;;;;;;;;;;7388599;40;1090;-19
2021/04/05 16:41:03;;;;;;;;;;;;;;;;;;7385920;40;2265;-21
2021/04/05 17:37:11;;;;;;;;;;;;;;;;;;7206624;39;10001848;-20
2021/04/05 17:42:35;;;;;;;;;;;;;;;;;;7455711;39;1927;-20
2021/04/05 17:48:15;;;;;;;;;;;;;;;;;;7455363;39;1079;-21
2021/04/05 17:53:45;;;;;;;;;;;;;;;;;;7454252;39;1400;-20
2021/04/05 17:59:16;;;;;;;;;;;;;;;;;;7446077;39;1010;-21
2021/04/05 18:05:15;;;;;;;;;;;;;;;;;;7455654;39;1941;-20
2021/04/05 18:11:01;;;;;;;;;;;;;;;;;;7454726;39;1061;-20
2021/04/05 18:16:22;;;;;;;;;;;;;;;;;;7453893;39;1036;-21
2021/04/05 18:21:42;;;;;;;;;;;;;;;;;;7453675;39;1897;-22
2021/04/05 18:27:22;;;;;;;;;;;;;;;;;;7434351;40;1100;-18
2021/04/05 18:32:53;;;;;;;;;;;;;;;;;;7433670;39;2709;-21
2021/04/05 18:38:16;;;;;;;;;;;;;;;;;;7419861;40;1068;-20
2021/04/05 18:43:36;;;;;;;;;;;;;;;;;;7420191;40;1866;-20
2021/04/05 18:49:15;;;;;;;;;;;;;;;;;;7420249;40;999;-20
2021/04/05 18:54:39;;;;;;;;;;;;;;;;;;7419843;40;1297;-21
2021/04/05 19:00:02;;;;;;;;;;;;;;;;;;7419596;40;1001;-22
2021/04/05 19:05:27;;;;;;;;;;;;;;;;;;7417868;40;3416;-21
2021/04/05 19:10:50;;;;;;;;;;;;;;;;;;7417749;40;1086;-20
2021/04/05 19:16:22;;;;;;;;;;;;;;;;;;7412581;40;1016;-23
2021/04/05 19:22:04;;;;;;;;;;;;;;;;;;7405850;40;1150;-19
2021/04/05 19:28:00;;;;;;;;;;;;;;;;;;7421690;40;1045;-22
2021/04/05 19:33:44;;;;;;;;;;;;;;;;;;7415325;40;1535;-21
2021/04/05 19:39:10;;;;;;;;;;;;;;;;;;7416548;40;1367;-21
2021/04/05 19:44:40;;;;;;;;;;;;;;;;;;7417578;40;1924;-22
2021/04/05 19:50:19;;;;;;;;;;;;;;;;;;7396278;40;998;-19
2021/04/05 19:55:43;;;;;;;;;;;;;;;;;;7397213;40;1078;-20
2021/04/05 20:01:06;;;;;;;;;;;;;;;;;;7397994;40;1104;-21
2021/04/05 20:06:32;;;;;;;;;;;;;;;;;;7416471;40;1886;-20
2021/04/05 20:12:11;;;;;;;;;;;;;;;;;;7417314;40;1074;-20
2021/04/05 20:17:36;;;;;;;;;;;;;;;;;;7420874;40;1150;-21
2021/04/05 20:23:09;;;;;;;;;;;;;;;;;;7417402;40;1937;-20
2021/04/05 20:28:32;;;;;;;;;;;;;;;;;;7420630;40;1068;-20
2021/04/05 20:33:52;;;;;;;;;;;;;;;;;;7421013;40;1214;-20
2021/04/05 20:39:13;;;;;;;;;;;;;;;;;;7420695;40;1341;-21
2021/04/05 20:44:51;;;;;;;;;;;;;;;;;;7420870;40;1935;-21
2021/04/05 20:50:11;;;;;;;;;;;;;;;;;;7418722;40;1102;-22
2021/04/05 20:55:44;;;;;;;;;;;;;;;;;;7417167;40;932;-22
2021/04/05 21:01:07;;;;;;;;;;;;;;;;;;7416724;40;1008;-22
2021/04/05 21:06:35;;;;;;;;;;;;;;;;;;7416858;40;1937;-22
2021/04/05 21:12:14;;;;;;;;;;;;;;;;;;7418594;40;1012;-21
2021/04/05 21:17:49;;;;;;;;;;;;;;;;;;7421013;40;968;-22
2021/04/05 21:23:30;;;;;;;;;;;;;;;;;;7420900;40;1877;-23
2021/04/05 21:29:03;;;;;;;;;;;;;;;;;;7420946;40;1085;-21
2021/04/05 21:34:28;;;;;;;;;;;;;;;;;;7420913;40;1313;-23
2021/04/05 21:40:14;;;;;;;;;;;;;;;;;;7420561;40;992;-22
2021/04/05 21:45:38;;;;;;;;;;;;;;;;;;7419195;40;1870;-23
2021/04/05 21:50:59;;;;;;;;;;;;;;;;;;7420907;40;980;-31
2021/04/05 21:56:20;;;;;;;;;;;;;;;;;;7420629;40;1202;-23
2021/04/05 22:01:40;;;;;;;;;;;;;;;;;;7420646;40;1043;-22
2021/04/05 22:07:01;;;;;;;;;;;;;;;;;;7420271;40;1917;-21
2021/04/05 22:12:25;;;;;;;;;;;;;;;;;;7422763;40;1096;-22
2021/04/05 22:17:46;;;;;;;;;;;;;;;;;;7423345;40;1027;-25
2021/04/05 22:23:09;;;;;;;;;;;;;;;;;;7423318;40;2016;-22
2021/04/05 22:28:31;;;;;;;;;;;;;;;;;;7423377;40;1037;-22
2021/04/05 22:33:59;;;;;;;;;;;;;;;;;;7423114;40;1203;-22
2021/04/05 22:39:28;;;;;;;;;;;;;;;;;;7423401;40;1227;-24
2021/04/05 22:44:53;;;;;;;;;;;;;;;;;;7422872;40;1866;-21
2021/04/05 22:50:22;;;;;;;;;;;;;;;;;;7423203;40;1388;-22
2021/04/05 22:55:49;;;;;;;;;;;;;;;;;;7422628;40;1068;-20
2021/04/05 23:01:10;;;;;;;;;;;;;;;;;;7422170;40;1104;-22
2021/04/05 23:06:35;;;;;;;;;;;;;;;;;;7422787;40;1931;-23
2021/04/05 23:12:06;;;;;;;;;;;;;;;;;;7422928;40;1062;-20
2021/04/05 23:17:32;;;;;;;;;;;;;;;;;;7422355;40;1097;-22
2021/04/05 23:22:55;;;;;;;;;;;;;;;;;;7422541;40;1935;-22
2021/04/05 23:28:21;;;;;;;;;;;;;;;;;;7421430;40;1178;-22
2021/04/05 23:33:46;;;;;;;;;;;;;;;;;;7420086;40;1124;-22
2021/04/05 23:39:10;;;;;;;;;;;;;;;;;;7421511;40;1114;-23
2021/04/05 23:44:36;;;;;;;;;;;;;;;;;;7421153;40;1870;-22
2021/04/05 23:49:57;;;;;;;;;;;;;;;;;;7421945;40;1077;-22
2021/04/05 23:55:27;;;;;;;;;;;;;;;;;;7422137;40;966;-23
